sensor_id;sensor_type;location;lat;lon;timestamp;pressure;altitude;pressure_sealevel;temperature;humidity
84821;BME280;75463;50.988;11.332;2024-02-21T00:00:36;99526.50;;;7.27;73.83
84821;BME280;75463;50.988;11.332;2024-02-21T00:03:03;99527.00;;;7.24;73.62
84821;BME280;75463;50.988;11.332;2024-02-21T00:05:29;99525.09;;;7.19;74.68
84821;BME280;75463;50.988;11.332;2024-02-21T00:07:55;99525.94;;;7.20;74.37
84821;BME280;75463;50.988;11.332;2024-02-21T00:10:20;99528.56;;;7.15;74.10
84821;BME280;75463;50.988;11.332;2024-02-21T00:12:45;99506.31;;;7.04;74.89
84821;BME280;75463;50.988;11.332;2024-02-21T00:15:11;99499.31;;;6.94;74.96
84821;BME280;75463;50.988;11.332;2024-02-21T00:17:37;99501.44;;;6.92;75.78
84821;BME280;75463;50.988;11.332;2024-02-21T00:20:02;99509.16;;;6.83;75.95
84821;BME280;75463;50.988;11.332;2024-02-21T00:22:27;99504.09;;;6.87;75.81
84821;BME280;75463;50.988;11.332;2024-02-21T00:24:58;99485.94;;;6.89;75.83
84821;BME280;75463;50.988;11.332;2024-02-21T00:27:24;99497.41;;;6.89;75.83
84821;BME280;75463;50.988;11.332;2024-02-21T00:29:49;99486.72;;;6.89;75.44
84821;BME280;75463;50.988;11.332;2024-02-21T00:32:15;99480.84;;;6.92;75.74
84821;BME280;75463;50.988;11.332;2024-02-21T00:34:40;99480.34;;;6.95;75.90
84821;BME280;75463;50.988;11.332;2024-02-21T00:37:06;99482.47;;;6.93;75.87
84821;BME280;75463;50.988;11.332;2024-02-21T00:39:31;99476.84;;;6.90;75.66
84821;BME280;75463;50.988;11.332;2024-02-21T00:41:56;99479.28;;;6.91;76.68
84821;BME280;75463;50.988;11.332;2024-02-21T00:44:22;99475.78;;;6.91;76.11
84821;BME280;75463;50.988;11.332;2024-02-21T00:46:47;99473.38;;;6.89;75.82
84821;BME280;75463;50.988;11.332;2024-02-21T00:49:12;99464.03;;;6.92;76.04
84821;BME280;75463;50.988;11.332;2024-02-21T00:51:38;99467.53;;;6.97;75.09
84821;BME280;75463;50.988;11.332;2024-02-21T00:54:03;99468.84;;;6.95;75.85
84821;BME280;75463;50.988;11.332;2024-02-21T00:56:28;99463.81;;;7.03;75.44
84821;BME280;75463;50.988;11.332;2024-02-21T00:58:55;99472.88;;;6.97;75.18
84821;BME280;75463;50.988;11.332;2024-02-21T01:01:24;99468.59;;;6.96;75.29
84821;BME280;75463;50.988;11.332;2024-02-21T01:03:50;99470.72;;;6.94;75.83
84821;BME280;75463;50.988;11.332;2024-02-21T01:06:18;99454.97;;;6.97;75.34
84821;BME280;75463;50.988;11.332;2024-02-21T01:08:43;99454.19;;;7.02;75.01
84821;BME280;75463;50.988;11.332;2024-02-21T01:11:09;99449.91;;;7.06;75.32
84821;BME280;75463;50.988;11.332;2024-02-21T01:13:34;99453.16;;;7.18;74.13
84821;BME280;75463;50.988;11.332;2024-02-21T01:15:59;99446.75;;;7.19;74.17
84821;BME280;75463;50.988;11.332;2024-02-21T01:18:25;99437.94;;;7.23;74.37
84821;BME280;75463;50.988;11.332;2024-02-21T01:20:51;99427.53;;;7.27;73.89
84821;BME280;75463;50.988;11.332;2024-02-21T01:23:16;99432.31;;;7.25;74.07
84821;BME280;75463;50.988;11.332;2024-02-21T01:25:41;99433.94;;;7.26;74.28
84821;BME280;75463;50.988;11.332;2024-02-21T01:28:07;99430.22;;;7.27;73.95
84821;BME280;75463;50.988;11.332;2024-02-21T01:30:32;99430.75;;;7.29;74.02
84821;BME280;75463;50.988;11.332;2024-02-21T01:32:58;99419.25;;;7.33;73.43
84821;BME280;75463;50.988;11.332;2024-02-21T01:35:23;99423.25;;;7.26;73.80
84821;BME280;75463;50.988;11.332;2024-02-21T01:37:48;99413.91;;;7.28;73.79
84821;BME280;75463;50.988;11.332;2024-02-21T01:40:14;99419.50;;;7.32;73.43
84821;BME280;75463;50.988;11.332;2024-02-21T01:42:40;99411.22;;;7.33;74.04
84821;BME280;75463;50.988;11.332;2024-02-21T01:45:08;99406.13;;;7.37;74.11
84821;BME280;75463;50.988;11.332;2024-02-21T01:47:34;99408.81;;;7.37;75.18
84821;BME280;75463;50.988;11.332;2024-02-21T01:50:01;99407.19;;;7.31;76.07
84821;BME280;75463;50.988;11.332;2024-02-21T01:52:29;99390.59;;;7.24;76.21
84821;BME280;75463;50.988;11.332;2024-02-21T01:54:54;99401.03;;;7.15;77.57
84821;BME280;75463;50.988;11.332;2024-02-21T01:57:20;99396.19;;;7.02;79.22
84821;BME280;75463;50.988;11.332;2024-02-21T01:59:45;99395.09;;;6.98;79.53
84821;BME280;75463;50.988;11.332;2024-02-21T02:02:11;99386.78;;;6.85;79.83
84821;BME280;75463;50.988;11.332;2024-02-21T02:04:38;99399.56;;;6.78;81.52
84821;BME280;75463;50.988;11.332;2024-02-21T02:07:04;99399.53;;;6.73;81.91
84821;BME280;75463;50.988;11.332;2024-02-21T02:09:31;99389.63;;;6.69;81.56
84821;BME280;75463;50.988;11.332;2024-02-21T02:11:57;99382.97;;;6.71;82.09
84821;BME280;75463;50.988;11.332;2024-02-21T02:14:23;99373.88;;;6.62;82.01
84821;BME280;75463;50.988;11.332;2024-02-21T02:16:49;99387.19;;;6.57;83.51
84821;BME280;75463;50.988;11.332;2024-02-21T02:19:14;99381.03;;;6.52;83.80
84821;BME280;75463;50.988;11.332;2024-02-21T02:21:46;99381.56;;;6.54;83.12
84821;BME280;75463;50.988;11.332;2024-02-21T02:24:12;99384.50;;;6.52;83.35
84821;BME280;75463;50.988;11.332;2024-02-21T02:26:39;99383.13;;;6.45;84.84
84821;BME280;75463;50.988;11.332;2024-02-21T02:29:04;99382.81;;;6.42;84.06
84821;BME280;75463;50.988;11.332;2024-02-21T02:31:30;99388.16;;;6.42;84.28
84821;BME280;75463;50.988;11.332;2024-02-21T02:33:55;99390.31;;;6.45;84.84
84821;BME280;75463;50.988;11.332;2024-02-21T02:36:20;99384.72;;;6.46;85.45
84821;BME280;75463;50.988;11.332;2024-02-21T02:38:46;99378.84;;;6.49;85.70
84821;BME280;75463;50.988;11.332;2024-02-21T02:41:11;99375.91;;;6.46;85.37
84821;BME280;75463;50.988;11.332;2024-02-21T02:43:36;99393.00;;;6.45;84.90
84821;BME280;75463;50.988;11.332;2024-02-21T02:46:02;99390.31;;;6.45;84.79
84821;BME280;75463;50.988;11.332;2024-02-21T02:48:28;99384.72;;;6.46;84.92
84821;BME280;75463;50.988;11.332;2024-02-21T02:50:54;99392.19;;;6.44;85.38
84821;BME280;75463;50.988;11.332;2024-02-21T02:53:19;99392.22;;;6.49;84.27
84821;BME280;75463;50.988;11.332;2024-02-21T02:55:44;99381.00;;;6.47;85.49
84821;BME280;75463;50.988;11.332;2024-02-21T02:58:10;99383.94;;;6.50;84.47
84821;BME280;75463;50.988;11.332;2024-02-21T03:00:35;99386.59;;;6.50;85.32
84821;BME280;75463;50.988;11.332;2024-02-21T03:03:01;99365.50;;;6.49;83.60
84821;BME280;75463;50.988;11.332;2024-02-21T03:05:29;99376.47;;;6.52;83.97
84821;BME280;75463;50.988;11.332;2024-02-21T03:07:54;99371.69;;;6.54;84.29
84821;BME280;75463;50.988;11.332;2024-02-21T03:10:20;99379.19;;;6.62;83.30
84821;BME280;75463;50.988;11.332;2024-02-21T03:12:46;99369.59;;;6.66;83.77
84821;BME280;75463;50.988;11.332;2024-02-21T03:15:12;99368.00;;;6.65;83.08
84821;BME280;75463;50.988;11.332;2024-02-21T03:17:37;99366.41;;;6.69;83.30
84821;BME280;75463;50.988;11.332;2024-02-21T03:20:04;99359.72;;;6.67;83.46
84821;BME280;75463;50.988;11.332;2024-02-21T03:22:31;99356.78;;;6.68;83.41
84821;BME280;75463;50.988;11.332;2024-02-21T03:24:56;99351.19;;;6.75;82.26
84821;BME280;75463;50.988;11.332;2024-02-21T03:27:21;99333.81;;;6.77;82.33
84821;BME280;75463;50.988;11.332;2024-02-21T03:29:47;99338.38;;;6.77;81.94
84821;BME280;75463;50.988;11.332;2024-02-21T03:32:12;99342.63;;;6.78;82.43
84821;BME280;75463;50.988;11.332;2024-02-21T03:34:38;99340.25;;;6.81;81.56
84821;BME280;75463;50.988;11.332;2024-02-21T03:37:03;99329.84;;;6.85;81.82
84821;BME280;75463;50.988;11.332;2024-02-21T03:39:31;99333.31;;;6.85;81.04
84821;BME280;75463;50.988;11.332;2024-02-21T03:41:56;99334.94;;;6.91;81.05
84821;BME280;75463;50.988;11.332;2024-02-21T03:44:23;99325.31;;;6.90;80.58
84821;BME280;75463;50.988;11.332;2024-02-21T03:46:48;99332.78;;;6.93;79.33
84821;BME280;75463;50.988;11.332;2024-02-21T03:49:13;99325.84;;;6.92;80.84
84821;BME280;75463;50.988;11.332;2024-02-21T03:51:38;99323.72;;;6.94;80.96
84821;BME280;75463;50.988;11.332;2024-02-21T03:54:04;99314.34;;;6.92;80.44
84821;BME280;75463;50.988;11.332;2024-02-21T03:56:29;99312.72;;;6.91;80.25
84821;BME280;75463;50.988;11.332;2024-02-21T03:58:55;99312.72;;;6.91;80.85
84821;BME280;75463;50.988;11.332;2024-02-21T04:01:20;99304.44;;;6.92;79.84
84821;BME280;75463;50.988;11.332;2024-02-21T04:03:46;99297.25;;;6.97;78.94
84821;BME280;75463;50.988;11.332;2024-02-21T04:06:11;99305.81;;;6.95;79.84
84821;BME280;75463;50.988;11.332;2024-02-21T04:08:37;99298.84;;;6.94;80.14
84821;BME280;75463;50.988;11.332;2024-02-21T04:11:02;99292.44;;;6.95;79.80
84821;BME280;75463;50.988;11.332;2024-02-21T04:13:28;99290.81;;;6.89;79.60
84821;BME280;75463;50.988;11.332;2024-02-21T04:15:53;99284.13;;;6.86;80.94
84821;BME280;75463;50.988;11.332;2024-02-21T04:18:19;99282.56;;;6.85;80.06
84821;BME280;75463;50.988;11.332;2024-02-21T04:20:44;99274.53;;;6.95;79.70
84821;BME280;75463;50.988;11.332;2024-02-21T04:23:09;99279.88;;;6.85;80.54
84821;BME280;75463;50.988;11.332;2024-02-21T04:25:35;99276.66;;;6.83;80.31
84821;BME280;75463;50.988;11.332;2024-02-21T04:28:01;99277.75;;;6.82;80.48
84821;BME280;75463;50.988;11.332;2024-02-21T04:30:26;99279.88;;;6.85;80.78
84821;BME280;75463;50.988;11.332;2024-02-21T04:32:51;99272.66;;;6.86;80.95
84821;BME280;75463;50.988;11.332;2024-02-21T04:35:16;99259.56;;;6.84;81.26
84821;BME280;75463;50.988;11.332;2024-02-21T04:37:42;99256.09;;;6.84;81.05
84821;BME280;75463;50.988;11.332;2024-02-21T04:40:08;99260.63;;;6.88;80.19
84821;BME280;75463;50.988;11.332;2024-02-21T04:42:34;99252.88;;;6.92;80.27
84821;BME280;75463;50.988;11.332;2024-02-21T04:44:59;99252.34;;;6.90;80.41
84821;BME280;75463;50.988;11.332;2024-02-21T04:47:25;99271.06;;;6.90;81.09
84821;BME280;75463;50.988;11.332;2024-02-21T04:49:50;99276.13;;;6.91;80.11
84821;BME280;75463;50.988;11.332;2024-02-21T04:52:16;99278.53;;;6.93;81.04
84821;BME280;75463;50.988;11.332;2024-02-21T04:54:41;99265.97;;;6.93;80.47
84821;BME280;75463;50.988;11.332;2024-02-21T04:57:06;99271.63;;;6.97;80.53
84821;BME280;75463;50.988;11.332;2024-02-21T04:59:32;99257.97;;;6.93;80.85
84821;BME280;75463;50.988;11.332;2024-02-21T05:01:57;99263.81;;;6.95;80.40
84821;BME280;75463;50.988;11.332;2024-02-21T05:04:24;99271.06;;;6.95;80.51
84821;BME280;75463;50.988;11.332;2024-02-21T05:06:49;99264.66;;;6.96;80.88
84821;BME280;75463;50.988;11.332;2024-02-21T05:09:15;99255.81;;;7.00;80.28
84821;BME280;75463;50.988;11.332;2024-02-21T05:11:41;99246.47;;;6.97;79.60
84821;BME280;75463;50.988;11.332;2024-02-21T05:14:06;99242.47;;;7.00;79.79
84821;BME280;75463;50.988;11.332;2024-02-21T05:16:32;99228.28;;;7.04;80.71
84821;BME280;75463;50.988;11.332;2024-02-21T05:18:57;99220.03;;;7.01;80.06
84821;BME280;75463;50.988;11.332;2024-02-21T05:21:23;99220.28;;;7.04;80.04
84821;BME280;75463;50.988;11.332;2024-02-21T05:23:53;99214.13;;;7.09;79.88
84821;BME280;75463;50.988;11.332;2024-02-21T05:26:22;99216.53;;;7.10;79.31
84821;BME280;75463;50.988;11.332;2024-02-21T05:28:48;99217.88;;;7.03;79.22
84821;BME280;75463;50.988;11.332;2024-02-21T05:31:15;99214.91;;;7.09;79.30
84821;BME280;75463;50.988;11.332;2024-02-21T05:33:40;99204.50;;;7.08;79.54
84821;BME280;75463;50.988;11.332;2024-02-21T05:36:06;99202.91;;;7.07;79.68
84821;BME280;75463;50.988;11.332;2024-02-21T05:38:32;99212.50;;;7.08;78.94
84821;BME280;75463;50.988;11.332;2024-02-21T05:40:57;99214.13;;;7.14;79.19
84821;BME280;75463;50.988;11.332;2024-02-21T05:43:23;99208.78;;;7.09;79.70
84821;BME280;75463;50.988;11.332;2024-02-21T05:45:48;99199.97;;;7.08;79.21
84821;BME280;75463;50.988;11.332;2024-02-21T05:48:13;99206.91;;;7.09;79.43
84821;BME280;75463;50.988;11.332;2024-02-21T05:50:39;99206.66;;;7.11;79.12
84821;BME280;75463;50.988;11.332;2024-02-21T05:53:04;99207.97;;;7.08;79.40
84821;BME280;75463;50.988;11.332;2024-02-21T05:55:29;99215.72;;;7.00;80.14
84821;BME280;75463;50.988;11.332;2024-02-21T05:57:55;99213.31;;;6.98;80.19
84821;BME280;75463;50.988;11.332;2024-02-21T06:00:21;99211.72;;;7.07;79.97
84821;BME280;75463;50.988;11.332;2024-02-21T06:02:46;99206.38;;;7.07;79.21
84821;BME280;75463;50.988;11.332;2024-02-21T06:05:11;99196.47;;;7.08;79.84
84821;BME280;75463;50.988;11.332;2024-02-21T06:07:38;99197.84;;;7.05;79.93
84821;BME280;75463;50.988;11.332;2024-02-21T06:10:06;99192.72;;;6.99;79.95
84821;BME280;75463;50.988;11.332;2024-02-21T06:12:32;99193.53;;;7.09;79.17
84821;BME280;75463;50.988;11.332;2024-02-21T06:14:57;99201.28;;;7.06;79.29
84821;BME280;75463;50.988;11.332;2024-02-21T06:17:22;99200.22;;;7.07;80.28
84821;BME280;75463;50.988;11.332;2024-02-21T06:19:48;99204.75;;;7.06;80.17
84821;BME280;75463;50.988;11.332;2024-02-21T06:22:13;99190.06;;;7.04;80.04
84821;BME280;75463;50.988;11.332;2024-02-21T06:24:38;99190.06;;;7.09;79.42
84821;BME280;75463;50.988;11.332;2024-02-21T06:27:04;99185.53;;;7.14;79.15
84821;BME280;75463;50.988;11.332;2024-02-21T06:29:33;99185.50;;;7.19;79.79
84821;BME280;75463;50.988;11.332;2024-02-21T06:31:59;99187.13;;;7.25;79.04
84821;BME280;75463;50.988;11.332;2024-02-21T06:34:24;99182.03;;;7.29;78.59
84821;BME280;75463;50.988;11.332;2024-02-21T06:36:50;99183.63;;;7.25;79.46
84821;BME280;75463;50.988;11.332;2024-02-21T06:39:16;99198.34;;;7.27;79.29
84821;BME280;75463;50.988;11.332;2024-02-21T06:41:41;99192.97;;;7.32;78.83
84821;BME280;75463;50.988;11.332;2024-02-21T06:44:06;99200.19;;;7.37;78.28
84821;BME280;75463;50.988;11.332;2024-02-21T06:46:32;99202.59;;;7.38;78.07
84821;BME280;75463;50.988;11.332;2024-02-21T06:49:00;99219.72;;;7.42;79.52
84821;BME280;75463;50.988;11.332;2024-02-21T06:51:26;99214.63;;;7.46;78.42
84821;BME280;75463;50.988;11.332;2024-02-21T06:53:52;99220.53;;;7.43;78.36
84821;BME280;75463;50.988;11.332;2024-02-21T06:56:17;99228.00;;;7.46;79.39
84821;BME280;75463;50.988;11.332;2024-02-21T06:58:42;99218.09;;;7.46;79.29
84821;BME280;75463;50.988;11.332;2024-02-21T07:01:08;99225.59;;;7.49;79.12
84821;BME280;75463;50.988;11.332;2024-02-21T07:03:34;99213.78;;;7.55;79.38
84821;BME280;75463;50.988;11.332;2024-02-21T07:05:59;99229.84;;;7.65;79.10
84821;BME280;75463;50.988;11.332;2024-02-21T07:08:25;99233.84;;;7.67;78.34
84821;BME280;75463;50.988;11.332;2024-02-21T07:10:50;99233.81;;;7.77;78.83
84821;BME280;75463;50.988;11.332;2024-02-21T07:13:15;99234.06;;;7.86;77.77
84821;BME280;75463;50.988;11.332;2024-02-21T07:15:41;99222.81;;;7.84;77.08
84821;BME280;75463;50.988;11.332;2024-02-21T07:18:07;99216.66;;;7.88;77.48
84821;BME280;75463;50.988;11.332;2024-02-21T07:20:32;99212.91;;;7.89;77.72
84821;BME280;75463;50.988;11.332;2024-02-21T07:23:06;99208.88;;;7.92;78.02
84821;BME280;75463;50.988;11.332;2024-02-21T07:25:31;99215.88;;;7.83;77.61
84821;BME280;75463;50.988;11.332;2024-02-21T07:27:57;99201.13;;;7.85;78.07
84821;BME280;75463;50.988;11.332;2024-02-21T07:30:22;99206.22;;;7.87;77.25
84821;BME280;75463;50.988;11.332;2024-02-21T07:32:51;99215.88;;;7.83;78.38
84821;BME280;75463;50.988;11.332;2024-02-21T07:35:17;99207.00;;;7.92;77.19
84821;BME280;75463;50.988;11.332;2024-02-21T07:37:42;99208.63;;;7.88;78.17
84821;BME280;75463;50.988;11.332;2024-02-21T07:40:15;99201.41;;;7.84;78.30
84821;BME280;75463;50.988;11.332;2024-02-21T07:42:41;99212.38;;;7.87;77.11
84821;BME280;75463;50.988;11.332;2024-02-21T07:45:10;99218.00;;;7.86;77.50
84821;BME280;75463;50.988;11.332;2024-02-21T07:47:36;99209.69;;;7.92;77.21
84821;BME280;75463;50.988;11.332;2024-02-21T07:50:05;99206.47;;;7.85;77.95
84821;BME280;75463;50.988;11.332;2024-02-21T07:52:31;99217.75;;;7.87;76.96
84821;BME280;75463;50.988;11.332;2024-02-21T07:54:56;99208.88;;;7.87;77.90
84821;BME280;75463;50.988;11.332;2024-02-21T07:57:22;99215.81;;;7.93;77.09
84821;BME280;75463;50.988;11.332;2024-02-21T07:59:48;99214.25;;;7.92;77.39
84821;BME280;75463;50.988;11.332;2024-02-21T08:02:14;99216.88;;;7.96;77.44
84821;BME280;75463;50.988;11.332;2024-02-21T08:04:39;99213.97;;;7.88;76.69
84821;BME280;75463;50.988;11.332;2024-02-21T08:07:05;99228.44;;;7.87;76.68
84821;BME280;75463;50.988;11.332;2024-02-21T08:09:30;99222.81;;;7.89;77.68
84821;BME280;75463;50.988;11.332;2024-02-21T08:11:55;99213.97;;;7.88;77.41
84821;BME280;75463;50.988;11.332;2024-02-21T08:14:21;99224.13;;;7.91;76.95
84821;BME280;75463;50.988;11.332;2024-02-21T08:16:47;99214.75;;;7.94;76.78
84821;BME280;75463;50.988;11.332;2024-02-21T08:19:13;99216.59;;;7.98;77.90
84821;BME280;75463;50.988;11.332;2024-02-21T08:21:38;99211.56;;;7.92;77.78
84821;BME280;75463;50.988;11.332;2024-02-21T08:24:04;99212.88;;;7.94;77.87
84821;BME280;75463;50.988;11.332;2024-02-21T08:26:29;99210.19;;;7.99;77.75
84821;BME280;75463;50.988;11.332;2024-02-21T08:28:56;99209.09;;;8.05;76.88
84821;BME280;75463;50.988;11.332;2024-02-21T08:31:25;99203.22;;;7.98;77.49
84821;BME280;75463;50.988;11.332;2024-02-21T08:33:56;99203.22;;;7.98;77.83
84821;BME280;75463;50.988;11.332;2024-02-21T08:36:27;99194.09;;;8.04;77.77
84821;BME280;75463;50.988;11.332;2024-02-21T08:38:52;99192.22;;;8.14;76.64
84821;BME280;75463;50.988;11.332;2024-02-21T08:41:17;99201.00;;;8.20;76.52
84821;BME280;75463;50.988;11.332;2024-02-21T08:43:43;99204.78;;;8.09;77.71
84821;BME280;75463;50.988;11.332;2024-02-21T08:46:08;99205.34;;;8.16;77.95
84821;BME280;75463;50.988;11.332;2024-02-21T08:48:33;99205.06;;;8.17;76.99
84821;BME280;75463;50.988;11.332;2024-02-21T08:50:59;99198.88;;;8.17;76.91
84821;BME280;75463;50.988;11.332;2024-02-21T08:53:24;99204.19;;;8.27;76.69
84821;BME280;75463;50.988;11.332;2024-02-21T08:55:49;99192.94;;;8.30;76.90
84821;BME280;75463;50.988;11.332;2024-02-21T08:58:15;99186.78;;;8.24;76.81
84821;BME280;75463;50.988;11.332;2024-02-21T09:00:40;99187.88;;;8.23;76.61
84821;BME280;75463;50.988;11.332;2024-02-21T09:03:05;99192.41;;;8.23;76.64
84821;BME280;75463;50.988;11.332;2024-02-21T09:05:30;99187.34;;;8.26;77.19
84821;BME280;75463;50.988;11.332;2024-02-21T09:07:56;99171.44;;;8.40;76.87
84821;BME280;75463;50.988;11.332;2024-02-21T09:10:21;99173.81;;;8.46;76.11
84821;BME280;75463;50.988;11.332;2024-02-21T09:12:46;99175.88;;;8.59;75.98
84821;BME280;75463;50.988;11.332;2024-02-21T09:15:12;99175.56;;;8.65;75.67
84821;BME280;75463;50.988;11.332;2024-02-21T09:17:38;99191.25;;;8.82;75.36
84821;BME280;75463;50.988;11.332;2024-02-21T09:20:05;99190.09;;;8.93;74.09
84821;BME280;75463;50.988;11.332;2024-02-21T09:22:31;99181.28;;;8.87;75.13
84821;BME280;75463;50.988;11.332;2024-02-21T09:24:59;99179.69;;;8.86;74.26
84821;BME280;75463;50.988;11.332;2024-02-21T09:27:25;99185.00;;;8.91;74.16
84821;BME280;75463;50.988;11.332;2024-02-21T09:29:50;99170.00;;;8.90;74.29
84821;BME280;75463;50.988;11.332;2024-02-21T09:32:15;99166.53;;;8.90;74.19
84821;BME280;75463;50.988;11.332;2024-02-21T09:34:41;99165.66;;;8.99;74.13
84821;BME280;75463;50.988;11.332;2024-02-21T09:37:06;99152.94;;;9.09;73.46
84821;BME280;75463;50.988;11.332;2024-02-21T09:39:32;99152.00;;;9.24;74.03
84821;BME280;75463;50.988;11.332;2024-02-21T09:42:05;99158.06;;;9.34;73.33
84821;BME280;75463;50.988;11.332;2024-02-21T09:44:37;99134.94;;;9.61;72.02
84821;BME280;75463;50.988;11.332;2024-02-21T09:47:06;99139.25;;;9.62;71.39
84821;BME280;75463;50.988;11.332;2024-02-21T09:49:34;99128.03;;;9.79;71.75
84821;BME280;75463;50.988;11.332;2024-02-21T09:52:04;99123.81;;;9.96;70.36
84821;BME280;75463;50.988;11.332;2024-02-21T09:54:32;99126.34;;;10.06;70.63
84821;BME280;75463;50.988;11.332;2024-02-21T09:56:57;99128.41;;;10.14;69.64
84821;BME280;75463;50.988;11.332;2024-02-21T09:59:23;99120.50;;;10.04;69.77
84821;BME280;75463;50.988;11.332;2024-02-21T10:01:49;99115.25;;;9.94;69.76
84821;BME280;75463;50.988;11.332;2024-02-21T10:04:15;99111.50;;;9.90;70.54
84821;BME280;75463;50.988;11.332;2024-02-21T10:06:41;99110.63;;;9.99;70.20
84821;BME280;75463;50.988;11.332;2024-02-21T10:09:06;99105.31;;;10.13;69.16
84821;BME280;75463;50.988;11.332;2024-02-21T10:11:32;99108.34;;;10.25;68.91
84821;BME280;75463;50.988;11.332;2024-02-21T10:14:06;99109.88;;;10.31;68.77
84821;BME280;75463;50.988;11.332;2024-02-21T10:16:33;99111.72;;;10.17;68.50
84821;BME280;75463;50.988;11.332;2024-02-21T10:18:58;99112.69;;;10.21;68.21
84821;BME280;75463;50.988;11.332;2024-02-21T10:21:24;99107.13;;;10.36;67.94
84821;BME280;75463;50.988;11.332;2024-02-21T10:23:50;99119.41;;;10.42;68.01
84821;BME280;75463;50.988;11.332;2024-02-21T10:26:17;99114.22;;;10.45;68.34
84821;BME280;75463;50.988;11.332;2024-02-21T10:28:43;99109.44;;;10.42;68.61
84821;BME280;75463;50.988;11.332;2024-02-21T10:31:11;99098.91;;;10.46;67.91
84821;BME280;75463;50.988;11.332;2024-02-21T10:33:37;99096.22;;;10.46;68.31
84821;BME280;75463;50.988;11.332;2024-02-21T10:36:09;99083.44;;;10.69;67.88
84821;BME280;75463;50.988;11.332;2024-02-21T10:38:39;99094.25;;;10.83;67.10
84821;BME280;75463;50.988;11.332;2024-02-21T10:41:05;99084.72;;;10.90;66.70
84821;BME280;75463;50.988;11.332;2024-02-21T10:43:37;99082.00;;;11.35;65.21
84821;BME280;75463;50.988;11.332;2024-02-21T10:46:05;99083.78;;;11.26;65.06
84821;BME280;75463;50.988;11.332;2024-02-21T10:48:39;99080.44;;;11.61;64.22
84821;BME280;75463;50.988;11.332;2024-02-21T10:51:20;99077.59;;;11.93;62.63
84821;BME280;75463;50.988;11.332;2024-02-21T10:56:28;99073.13;;;11.75;62.69
84821;BME280;75463;50.988;11.332;2024-02-21T10:58:54;99073.22;;;11.70;63.05
84821;BME280;75463;50.988;11.332;2024-02-21T11:01:22;99062.06;;;11.76;62.53
84821;BME280;75463;50.988;11.332;2024-02-21T11:03:49;99057.06;;;11.70;62.51
84821;BME280;75463;50.988;11.332;2024-02-21T11:06:16;99063.84;;;11.67;62.86
84821;BME280;75463;50.988;11.332;2024-02-21T11:08:42;99055.97;;;11.57;63.06
84821;BME280;75463;50.988;11.332;2024-02-21T11:11:12;99053.47;;;11.74;62.66
84821;BME280;75463;50.988;11.332;2024-02-21T11:13:42;99037.25;;;12.66;59.66
84821;BME280;75463;50.988;11.332;2024-02-21T11:16:12;99017.75;;;13.85;56.48
84821;BME280;75463;50.988;11.332;2024-02-21T11:18:38;99007.75;;;14.02;54.57
84821;BME280;75463;50.988;11.332;2024-02-21T11:21:03;99002.94;;;13.74;54.76
84821;BME280;75463;50.988;11.332;2024-02-21T11:23:32;98994.81;;;13.74;55.22
84821;BME280;75463;50.988;11.332;2024-02-21T11:26:10;98985.63;;;13.75;55.01
84821;BME280;75463;50.988;11.332;2024-02-21T11:28:44;98987.34;;;13.54;55.94
84821;BME280;75463;50.988;11.332;2024-02-21T11:31:13;98982.00;;;14.05;55.26
84821;BME280;75463;50.988;11.332;2024-02-21T11:33:43;98969.41;;;14.51;53.29
84821;BME280;75463;50.988;11.332;2024-02-21T11:36:23;98962.41;;;13.57;54.99
84821;BME280;75463;50.988;11.332;2024-02-21T11:38:49;98964.91;;;13.54;55.14
84821;BME280;75463;50.988;11.332;2024-02-21T11:41:15;98952.72;;;13.73;55.10
84821;BME280;75463;50.988;11.332;2024-02-21T11:43:41;98958.78;;;14.12;53.94
84821;BME280;75463;50.988;11.332;2024-02-21T11:46:06;98957.16;;;14.37;53.12
84821;BME280;75463;50.988;11.332;2024-02-21T11:48:32;98955.41;;;14.41;52.61
84821;BME280;75463;50.988;11.332;2024-02-21T11:50:57;98944.91;;;13.97;52.88
84821;BME280;75463;50.988;11.332;2024-02-21T11:53:23;98951.78;;;13.95;52.28
84821;BME280;75463;50.988;11.332;2024-02-21T11:55:49;98947.59;;;13.47;53.07
84821;BME280;75463;50.988;11.332;2024-02-21T11:58:15;98946.72;;;13.21;54.23
84821;BME280;75463;50.988;11.332;2024-02-21T12:00:41;98951.16;;;12.78;55.59
84821;BME280;75463;50.988;11.332;2024-02-21T12:03:07;98935.53;;;13.69;53.63
84821;BME280;75463;50.988;11.332;2024-02-21T12:05:33;98936.38;;;14.12;52.06
84821;BME280;75463;50.988;11.332;2024-02-21T12:07:58;98934.88;;;13.39;53.47
84821;BME280;75463;50.988;11.332;2024-02-21T12:10:25;98923.34;;;13.08;53.69
84821;BME280;75463;50.988;11.332;2024-02-21T12:12:51;98924.47;;;13.15;53.89
84821;BME280;75463;50.988;11.332;2024-02-21T12:15:18;98919.09;;;13.24;53.79
84821;BME280;75463;50.988;11.332;2024-02-21T12:17:43;98907.97;;;13.25;53.35
84821;BME280;75463;50.988;11.332;2024-02-21T12:20:09;98894.31;;;13.22;53.19
84821;BME280;75463;50.988;11.332;2024-02-21T12:22:36;98894.88;;;12.94;53.82
84821;BME280;75463;50.988;11.332;2024-02-21T12:25:15;98878.88;;;13.14;53.51
84821;BME280;75463;50.988;11.332;2024-02-21T12:27:43;98873.16;;;13.15;53.36
84821;BME280;75463;50.988;11.332;2024-02-21T12:30:09;98873.50;;;13.22;53.25
84821;BME280;75463;50.988;11.332;2024-02-21T12:32:35;98864.75;;;13.08;52.82
84821;BME280;75463;50.988;11.332;2024-02-21T12:35:01;98850.91;;;12.93;52.90
84821;BME280;75463;50.988;11.332;2024-02-21T12:37:26;98847.22;;;12.89;52.31
84821;BME280;75463;50.988;11.332;2024-02-21T12:39:51;98834.88;;;13.05;52.45
84821;BME280;75463;50.988;11.332;2024-02-21T12:42:17;98830.28;;;13.14;51.80
84821;BME280;75463;50.988;11.332;2024-02-21T12:44:42;98830.28;;;12.97;51.86
84821;BME280;75463;50.988;11.332;2024-02-21T12:47:08;98834.22;;;12.99;51.45
84821;BME280;75463;50.988;11.332;2024-02-21T12:49:33;98820.97;;;12.64;51.79
84821;BME280;75463;50.988;11.332;2024-02-21T12:51:58;98820.50;;;12.79;51.36
84821;BME280;75463;50.988;11.332;2024-02-21T12:54:24;98823.03;;;12.67;50.97